Flight Track Log - Related Links

Times and Time Zones

All times are in EDT time to prevent confusion due to time zone crossing. See the SLI2344 flight status page for this flight to view local times or setup timezone preferences in your user account.

Time Position Orientation Groundspeed Altitude Reporting Facility
EDT Latitude Longitude Course Direction KTS MPH feet Rate Location/Type
Thu 08:25:00 AM 20.8021 -103.3165 359° North  Level Estimated
Thu 08:26:00 AM 20.8955 -103.3183 359° North  Level Estimated
Thu 08:27:00 AM 20.9872 -103.3200 359° North  Level Estimated
Thu 08:28:00 AM 21.0790 -103.3218 359° North  Level Estimated
Thu 08:29:00 AM 21.1707 -103.3235 359° North  Level Estimated
Thu 08:30:00 AM 21.2624 -103.3253 359° North  Level Estimated
Thu 08:31:00 AM 21.3541 -103.3271 359° North  Level Estimated
Thu 08:32:00 AM 21.4459 -103.3288 359° North  Level Estimated
Thu 08:33:00 AM 21.5376 -103.3306 359° North  Level Estimated
Thu 08:34:00 AM 21.6293 -103.3324 359° North  Level Estimated
Thu 08:35:00 AM 21.7211 -103.3341 359° North  Level Estimated
Thu 08:36:00 AM 21.8128 -103.3359 359° North  Level Estimated
Thu 08:37:00 AM 21.9045 -103.3377 359° North  Level Estimated
Thu 08:38:00 AM 21.9963 -103.3394 359° North  Level Estimated
Thu 08:39:00 AM 22.0880 -103.3412 359° North  Level Estimated
Thu 08:40:00 AM 22.1797 -103.3430 359° North  Level Estimated
Thu 08:41:00 AM 22.2714 -103.3448 359° North  Level Estimated
Thu 08:42:00 AM 22.3632 -103.3466 359° North  Level Estimated
Thu 08:43:00 AM 22.4549 -103.3484 359° North  Level Estimated
Thu 08:44:00 AM 22.5466 -103.3502 359° North  Level Estimated
Thu 08:45:00 AM 22.6384 -103.3520 359° North  Level Estimated
Thu 08:46:00 AM 22.7301 -103.3538 359° North  Level Estimated
Thu 08:47:00 AM 22.8218 -103.3556 359° North  Level Estimated
Thu 08:48:00 AM 22.9135 -103.3574 359° North  Level Estimated
Thu 08:49:00 AM 23.0053 -103.3592 359° North  Level Estimated
Thu 08:50:00 AM 23.0970 -103.3610 359° North  Level Estimated
Thu 08:51:00 AM 23.1887 -103.3628 359° North  Level Estimated
Thu 08:52:00 AM 23.2805 -103.3646 359° North  Level Estimated
Thu 08:53:00 AM 23.3722 -103.3664 359° North  Level Estimated
Thu 08:54:00 AM 23.4639 -103.3682 359° North  Level Estimated
Thu 08:55:00 AM 23.5557 -103.3700 359° North  Level Estimated
Thu 08:56:00 AM 23.6474 -103.3718 359° North  Level Estimated
Thu 08:57:00 AM 23.7391 -103.3737 359° North  Level Estimated
Thu 08:58:00 AM 23.8309 -103.3755 359° North  Level Estimated
Thu 08:59:00 AM 23.9226 -103.3773 359° North  Level Estimated
Thu 09:00:00 AM 24.0143 -103.3792 359° North  Level Estimated
Thu 09:01:00 AM 24.1060 -103.3810 359° North  Level Estimated
Thu 09:02:00 AM 24.1978 -103.3828 359° North  Level Estimated
Thu 09:03:00 AM 24.2895 -103.3847 359° North  Level Estimated
Thu 09:04:00 AM 24.3812 -103.3865 359° North  Level Estimated
Thu 09:05:00 AM 24.4730 -103.3884 359° North  Level Estimated
Thu 09:06:00 AM 24.5647 -103.3902 359° North  Level Estimated
Thu 09:07:00 AM 24.6564 -103.3921 359° North  Level Estimated
Thu 09:08:00 AM 24.7481 -103.3939 359° North  Level Estimated
Thu 09:09:00 AM 24.8399 -103.3958 359° North  Level Estimated
Thu 09:10:00 AM 24.9316 -103.3976 359° North  Level Estimated
Thu 09:11:00 AM 25.0233 -103.3995 359° North  Level Estimated
Thu 09:12:00 AM 25.1151 -103.4013 359° North  Level Estimated
Thu 09:13:00 AM 25.2068 -103.4032 359° North  Level Estimated
Thu 09:14:00 AM 25.2985 -103.4051 359° North  Level Estimated
Thu 09:15:00 AM 25.3902 -103.4069 359° North  Level Estimated
Thu 09:16:00 AM 25.4820 -103.4088 359° North  Level Estimated
Thu 09:17:00 AM 25.5683 -103.4106 359° North  Level Estimated
Thu 09:18:00 AM 25.5683 -103.4106 234° Southwest  Level Estimated
Thu 09:19:00 AM 25.5683 -103.4106 234° Southwest  Level Estimated
Thu 09:20:00 AM 25.5683 -103.4106 234° Southwest  Level Estimated
Thu 09:21:00 AM 25.5683 -103.4106 234° Southwest  Level Estimated
Thu 09:22:00 AM 25.5683 -103.4106 234° Southwest  Level Estimated

Login

Don't have an account? Register now (free) for customized features, flight alerts, and more!